Time;durP1;ratioP1;P1;durP2;ratioP2;P2;SDS_P1;SDS_P2;PMS_P1;PMS_P2;Temp;Humidity;BMP_temperature;BMP_pressure;BME280_temperature;BME280_humidity;BME280_pressure;Samples;Min_cycle;Max_cycle;Signal;HPM_P1;HPM_P2
2023/12/21 00:01:31;;;;;;;;;;;7.70;99.90;;;;;;5102564;28;19961;-76
2023/12/21 00:04:17;;;;;;;;;;;7.90;99.90;;;;;;5105172;28;19920;-75
2023/12/21 00:07:03;;;;;;;;;;;8.10;99.90;;;;;;5116434;28;19911;-75
2023/12/21 00:09:49;;;;;;;;;;;8.30;99.90;;;;;;5102633;28;20939;-77
2023/12/21 00:12:35;;;;;;;;;;;8.40;99.90;;;;;;5114546;28;20006;-77
2023/12/21 00:15:21;;;;;;;;;;;8.40;99.90;;;;;;5101531;28;19931;-77
2023/12/21 00:18:07;;;;;;;;;;;8.60;99.90;;;;;;5104036;28;20030;-77
2023/12/21 00:20:52;;;;;;;;;;;8.30;99.90;;;;;;5117419;28;19951;-77
2023/12/21 00:23:39;;;;;;;;;;;8.20;99.90;;;;;;5096669;28;20236;-78
2023/12/21 00:26:25;;;;;;;;;;;8.10;99.90;;;;;;5111167;28;19919;-77
2023/12/21 00:29:11;;;;;;;;;;;8.00;99.90;;;;;;5089614;28;19920;-78
2023/12/21 00:31:57;;;;;;;;;;;8.00;99.90;;;;;;5103139;28;19912;-77
2023/12/21 00:34:44;;;;;;;;;;;8.00;99.90;;;;;;5091352;28;19920;-78
2023/12/21 00:37:36;;;;;;;;;;;8.20;99.90;;;;;;5096278;28;19911;-77
2023/12/21 00:40:22;;;;;;;;;;;8.10;99.90;;;;;;5094292;28;19911;-76
2023/12/21 00:43:07;;;;;;;;;;;8.00;99.90;;;;;;5082787;28;19919;-77
2023/12/21 00:45:53;;;;;;;;;;;8.00;99.90;;;;;;5090023;28;19912;-78
2023/12/21 00:48:39;;;;;;;;;;;8.00;99.90;;;;;;5097147;28;19920;-78
2023/12/21 00:51:25;;;;;;;;;;;8.00;99.90;;;;;;5107575;28;19951;-77
2023/12/21 00:54:11;;;;;;;;;;;8.00;99.90;;;;;;5111742;28;19920;-77
2023/12/21 00:56:57;;;;;;;;;;;8.00;99.90;;;;;;5116220;28;19927;-77
2023/12/21 00:59:42;;;;;;;;;;;8.00;99.90;;;;;;5087673;27;19999;-77
2023/12/21 01:02:28;;;;;;;;;;;8.00;99.90;;;;;;5099777;28;19913;-77
2023/12/21 01:05:14;;;;;;;;;;;8.00;99.90;;;;;;5095336;28;19970;-77
2023/12/21 01:08:00;;;;;;;;;;;8.00;99.90;;;;;;5093982;28;19947;-78
2023/12/21 01:10:46;;;;;;;;;;;8.00;99.90;;;;;;5083045;28;20321;-77
2023/12/21 01:13:33;;;;;;;;;;;8.00;99.90;;;;;;5090397;28;19912;-77
2023/12/21 01:16:19;;;;;;;;;;;8.00;99.90;;;;;;5095276;28;20339;-78
2023/12/21 01:19:05;;;;;;;;;;;8.00;99.90;;;;;;5107356;28;19916;-78
2023/12/21 01:21:51;;;;;;;;;;;8.00;99.90;;;;;;5085609;28;19916;-76
2023/12/21 01:24:39;;;;;;;;;;;8.00;99.90;;;;;;5113437;28;19915;-77
2023/12/21 01:27:28;;;;;;;;;;;8.00;99.90;;;;;;5110903;28;19918;-77
2023/12/21 01:30:15;;;;;;;;;;;7.90;99.90;;;;;;5088901;28;20298;-76
2023/12/21 01:33:01;;;;;;;;;;;7.90;99.90;;;;;;5099435;28;20006;-76
2023/12/21 01:35:47;;;;;;;;;;;8.00;99.90;;;;;;5110167;28;19920;-77
2023/12/21 01:38:33;;;;;;;;;;;8.00;99.90;;;;;;5095349;28;20286;-77
2023/12/21 01:41:19;;;;;;;;;;;8.00;99.90;;;;;;5098881;28;19912;-77
2023/12/21 01:44:05;;;;;;;;;;;8.00;99.90;;;;;;5096376;28;19923;-77
2023/12/21 01:46:51;;;;;;;;;;;8.00;99.90;;;;;;5110194;28;20039;-79
2023/12/21 01:49:38;;;;;;;;;;;8.00;99.90;;;;;;5115080;28;20037;-78
2023/12/21 01:52:24;;;;;;;;;;;8.10;99.90;;;;;;5114392;28;19923;-76
2023/12/21 01:55:10;;;;;;;;;;;8.00;99.90;;;;;;5116270;28;20302;-77
2023/12/21 01:57:56;;;;;;;;;;;8.10;99.90;;;;;;5108038;28;19943;-77
2023/12/21 02:00:41;;;;;;;;;;;8.10;99.90;;;;;;5086370;27;19920;-77
2023/12/21 02:03:28;;;;;;;;;;;8.10;99.90;;;;;;5085308;28;20313;-76
2023/12/21 02:06:14;;;;;;;;;;;8.10;99.90;;;;;;5097746;28;19912;-77
2023/12/21 02:08:59;;;;;;;;;;;8.10;99.90;;;;;;5114887;28;20366;-77
2023/12/21 02:11:46;;;;;;;;;;;8.10;99.90;;;;;;5099073;28;19972;-76
2023/12/21 02:14:32;;;;;;;;;;;8.10;99.90;;;;;;5115117;28;19916;-80
2023/12/21 02:17:19;;;;;;;;;;;8.10;99.90;;;;;;5116983;27;19945;-77
2023/12/21 02:20:05;;;;;;;;;;;8.10;99.90;;;;;;5101755;28;19998;-77
2023/12/21 02:22:51;;;;;;;;;;;8.10;99.90;;;;;;5089795;28;20248;-77
2023/12/21 02:25:37;;;;;;;;;;;8.10;99.90;;;;;;5084997;28;19912;-77
2023/12/21 02:28:23;;;;;;;;;;;8.10;99.90;;;;;;5094788;28;19912;-77
2023/12/21 02:31:09;;;;;;;;;;;8.10;99.90;;;;;;5108263;28;19919;-78
2023/12/21 02:33:55;;;;;;;;;;;8.10;99.90;;;;;;5104467;28;19919;-77
2023/12/21 02:36:41;;;;;;;;;;;8.10;99.90;;;;;;5094352;28;19915;-76
2023/12/21 02:39:27;;;;;;;;;;;8.10;99.90;;;;;;5102478;28;19915;-78
2023/12/21 02:42:13;;;;;;;;;;;8.10;99.90;;;;;;5106218;28;20302;-79
2023/12/21 02:44:59;;;;;;;;;;;8.10;99.90;;;;;;5105221;28;19916;-78
2023/12/21 02:47:45;;;;;;;;;;;8.10;99.90;;;;;;5110689;28;19998;-78
2023/12/21 02:50:30;;;;;;;;;;;8.00;99.90;;;;;;5106642;28;20032;-78
2023/12/21 02:53:16;;;;;;;;;;;8.00;99.90;;;;;;5100083;28;19915;-77
2023/12/21 02:56:02;;;;;;;;;;;8.10;99.90;;;;;;5101950;28;20666;-80
2023/12/21 02:58:48;;;;;;;;;;;8.00;99.90;;;;;;5112669;28;19912;-78
2023/12/21 03:01:39;;;;;;;;;;;8.00;99.90;;;;;;5105496;28;19999;-79
2023/12/21 03:04:25;;;;;;;;;;;8.10;99.90;;;;;;5088327;28;20003;-78
2023/12/21 03:07:11;;;;;;;;;;;8.00;99.90;;;;;;5104752;28;19916;-79
2023/12/21 03:09:57;;;;;;;;;;;8.00;99.90;;;;;;5096891;28;20290;-79
2023/12/21 03:12:43;;;;;;;;;;;8.10;99.90;;;;;;5112199;28;20364;-77
2023/12/21 03:15:29;;;;;;;;;;;8.00;99.90;;;;;;5102209;28;19958;-77
2023/12/21 03:18:14;;;;;;;;;;;8.10;99.90;;;;;;5100282;28;19912;-77
2023/12/21 03:21:00;;;;;;;;;;;8.10;99.90;;;;;;5115281;28;19938;-79
2023/12/21 03:23:46;;;;;;;;;;;8.10;99.90;;;;;;5095033;28;20008;-76
2023/12/21 03:26:32;;;;;;;;;;;8.10;99.90;;;;;;5094683;28;19964;-77
2023/12/21 03:29:18;;;;;;;;;;;8.10;99.90;;;;;;5101845;28;19912;-76
2023/12/21 03:32:04;;;;;;;;;;;8.10;99.90;;;;;;5115441;28;19923;-77
2023/12/21 03:34:50;;;;;;;;;;;8.10;99.90;;;;;;5097531;28;19931;-78
2023/12/21 03:37:37;;;;;;;;;;;8.10;99.90;;;;;;5110570;28;20363;-77
2023/12/21 03:40:23;;;;;;;;;;;8.10;99.90;;;;;;5115562;28;20361;-77
2023/12/21 03:43:09;;;;;;;;;;;8.10;99.90;;;;;;5095405;28;19912;-79
2023/12/21 03:45:55;;;;;;;;;;;8.10;99.90;;;;;;5093538;28;19915;-78
2023/12/21 03:48:41;;;;;;;;;;;8.10;99.90;;;;;;5105134;28;20012;-78
2023/12/21 03:51:27;;;;;;;;;;;8.10;99.90;;;;;;5111930;28;19912;-78
2023/12/21 03:54:13;;;;;;;;;;;8.10;99.90;;;;;;5101583;28;19916;-78
2023/12/21 03:56:59;;;;;;;;;;;8.20;99.90;;;;;;5115455;28;19922;-78
2023/12/21 03:59:44;;;;;;;;;;;8.10;99.90;;;;;;5108680;27;19916;-78
2023/12/21 04:02:30;;;;;;;;;;;8.20;99.90;;;;;;5121844;27;19916;-78
2023/12/21 04:05:16;;;;;;;;;;;8.20;99.90;;;;;;5099959;28;19979;-78
2023/12/21 04:08:02;;;;;;;;;;;8.20;99.90;;;;;;5098251;28;19923;-78
2023/12/21 04:10:49;;;;;;;;;;;8.20;99.90;;;;;;5104124;28;19913;-77
2023/12/21 04:13:35;;;;;;;;;;;8.20;99.90;;;;;;5118118;28;19912;-79
2023/12/21 04:16:21;;;;;;;;;;;8.30;99.90;;;;;;5099376;28;19928;-79
2023/12/21 04:19:07;;;;;;;;;;;8.30;99.90;;;;;;5100069;28;19912;-79
2023/12/21 04:21:53;;;;;;;;;;;8.20;99.90;;;;;;5090461;28;20282;-78
2023/12/21 04:24:40;;;;;;;;;;;8.30;99.90;;;;;;5122225;27;19911;-78
2023/12/21 04:27:26;;;;;;;;;;;8.30;99.90;;;;;;5105618;28;20329;-78
2023/12/21 04:30:12;;;;;;;;;;;8.30;99.90;;;;;;5107893;27;19923;-79
2023/12/21 04:32:58;;;;;;;;;;;8.30;99.90;;;;;;5111628;28;19927;-78
2023/12/21 04:35:45;;;;;;;;;;;8.30;99.90;;;;;;5097245;28;19927;-78
2023/12/21 04:38:31;;;;;;;;;;;8.30;99.90;;;;;;5118390;27;19916;-77
2023/12/21 04:41:17;;;;;;;;;;;8.30;99.90;;;;;;5116954;27;19916;-77
2023/12/21 04:44:04;;;;;;;;;;;8.40;99.90;;;;;;5123332;27;19923;-79
2023/12/21 04:46:50;;;;;;;;;;;8.30;99.90;;;;;;5083989;28;20256;-78
2023/12/21 04:49:36;;;;;;;;;;;8.40;99.90;;;;;;5083051;28;19927;-78
2023/12/21 04:52:22;;;;;;;;;;;8.30;99.90;;;;;;5095080;28;19916;-78
2023/12/21 04:55:08;;;;;;;;;;;8.30;99.90;;;;;;5104672;28;19916;-78
2023/12/21 04:57:53;;;;;;;;;;;8.40;99.90;;;;;;5106954;27;19916;-77
2023/12/21 05:00:40;;;;;;;;;;;8.40;99.90;;;;;;5102394;28;20325;-77
2023/12/21 05:03:26;;;;;;;;;;;8.40;99.90;;;;;;5096344;28;19998;-78
2023/12/21 05:06:12;;;;;;;;;;;8.40;99.90;;;;;;5097170;27;19911;-78
2023/12/21 05:08:59;;;;;;;;;;;8.40;99.90;;;;;;5105747;27;19973;-78
2023/12/21 05:11:45;;;;;;;;;;;8.50;99.90;;;;;;5102668;27;19915;-76
2023/12/21 05:14:31;;;;;;;;;;;8.50;99.90;;;;;;5083192;28;20018;-77
2023/12/21 05:17:16;;;;;;;;;;;8.50;99.90;;;;;;5084322;28;19939;-78
2023/12/21 05:20:03;;;;;;;;;;;8.50;99.90;;;;;;5108353;28;19922;-78
2023/12/21 05:22:49;;;;;;;;;;;8.50;99.90;;;;;;5107055;28;20000;-77
2023/12/21 05:25:35;;;;;;;;;;;8.50;99.90;;;;;;5115158;28;19915;-78
2023/12/21 05:28:21;;;;;;;;;;;8.60;99.90;;;;;;5101421;28;19927;-78
2023/12/21 05:31:08;;;;;;;;;;;8.50;99.90;;;;;;5095413;28;20316;-79
2023/12/21 05:33:54;;;;;;;;;;;8.60;99.90;;;;;;5103748;28;19923;-78
2023/12/21 05:36:40;;;;;;;;;;;8.60;99.90;;;;;;5116608;28;19915;-79
2023/12/21 05:39:26;;;;;;;;;;;8.60;99.90;;;;;;5097006;28;19919;-77
2023/12/21 05:42:11;;;;;;;;;;;8.60;99.90;;;;;;5105926;28;19919;-78
2023/12/21 05:44:58;;;;;;;;;;;8.60;99.90;;;;;;5114107;28;19912;-77
2023/12/21 05:47:43;;;;;;;;;;;8.70;99.90;;;;;;5101207;28;19953;-78
2023/12/21 05:50:29;;;;;;;;;;;8.70;99.90;;;;;;5113050;28;19919;-78
2023/12/21 05:53:15;;;;;;;;;;;8.70;99.90;;;;;;5114030;28;19969;-77
2023/12/21 05:56:02;;;;;;;;;;;8.70;99.90;;;;;;5113303;28;19955;-77
2023/12/21 05:58:48;;;;;;;;;;;8.70;99.90;;;;;;5112771;28;19955;-77
2023/12/21 06:01:34;;;;;;;;;;;8.70;99.90;;;;;;5080367;28;19912;-77
2023/12/21 06:04:20;;;;;;;;;;;8.70;99.90;;;;;;5094058;28;19912;-78
2023/12/21 06:07:06;;;;;;;;;;;8.80;99.90;;;;;;5113151;28;19984;-80
2023/12/21 06:09:52;;;;;;;;;;;8.80;99.90;;;;;;5100464;28;19985;-78
2023/12/21 06:12:38;;;;;;;;;;;8.80;99.90;;;;;;5093106;28;20332;-77
2023/12/21 06:15:24;;;;;;;;;;;8.80;99.90;;;;;;5080113;28;19920;-78
2023/12/21 06:18:10;;;;;;;;;;;8.80;99.90;;;;;;5101392;28;20060;-77
2023/12/21 06:20:57;;;;;;;;;;;8.80;99.90;;;;;;5112254;28;19923;-77
2023/12/21 06:23:42;;;;;;;;;;;8.80;99.90;;;;;;5114994;28;20019;-77
2023/12/21 06:26:28;;;;;;;;;;;8.80;99.90;;;;;;5114002;28;19942;-78
2023/12/21 06:29:14;;;;;;;;;;;8.80;99.90;;;;;;5115926;28;19912;-78
2023/12/21 06:32:00;;;;;;;;;;;8.80;99.90;;;;;;5108159;28;19927;-77
2023/12/21 06:34:46;;;;;;;;;;;8.80;99.90;;;;;;5094822;28;19931;-78
2023/12/21 06:37:32;;;;;;;;;;;8.80;99.90;;;;;;5104733;28;19923;-78
2023/12/21 06:40:18;;;;;;;;;;;8.80;99.90;;;;;;5080260;28;19912;-77
2023/12/21 06:43:04;;;;;;;;;;;8.80;99.90;;;;;;5094106;28;20004;-78
2023/12/21 06:45:49;;;;;;;;;;;8.80;99.90;;;;;;5080584;28;19989;-78
2023/12/21 06:48:36;;;;;;;;;;;8.80;99.90;;;;;;5093698;28;19911;-78
2023/12/21 06:51:22;;;;;;;;;;;8.80;99.90;;;;;;5095826;28;19945;-78
2023/12/21 06:54:07;;;;;;;;;;;8.80;99.90;;;;;;5094377;28;19923;-78
2023/12/21 06:56:54;;;;;;;;;;;8.80;99.90;;;;;;5084980;28;19919;-78
2023/12/21 06:59:40;;;;;;;;;;;8.80;99.90;;;;;;5110356;28;19922;-78
2023/12/21 07:02:26;;;;;;;;;;;8.70;99.90;;;;;;5115196;28;19916;-79
2023/12/21 07:05:12;;;;;;;;;;;8.70;99.90;;;;;;5089660;28;19926;-79
2023/12/21 07:07:58;;;;;;;;;;;8.70;99.90;;;;;;5114116;28;20327;-79
2023/12/21 07:10:45;;;;;;;;;;;8.70;99.90;;;;;;5113732;28;19922;-79
2023/12/21 07:13:31;;;;;;;;;;;8.60;99.90;;;;;;5101185;28;20003;-78
2023/12/21 07:16:17;;;;;;;;;;;8.60;99.90;;;;;;5115427;28;19927;-78
2023/12/21 07:19:05;;;;;;;;;;;8.60;99.90;;;;;;5101573;28;19916;-79
2023/12/21 07:21:51;;;;;;;;;;;8.60;99.90;;;;;;5115173;28;20368;-79
2023/12/21 07:24:37;;;;;;;;;;;8.60;99.90;;;;;;5102143;28;19954;-78
2023/12/21 07:27:24;;;;;;;;;;;8.50;99.90;;;;;;5114642;28;20278;-79
2023/12/21 07:30:11;;;;;;;;;;;8.50;99.90;;;;;;5108188;28;19913;-78
2023/12/21 07:32:56;;;;;;;;;;;8.50;99.90;;;;;;5087950;28;19923;-79
2023/12/21 07:35:44;;;;;;;;;;;8.50;99.90;;;;;;5107735;28;19927;-80
2023/12/21 07:38:30;;;;;;;;;;;8.50;99.90;;;;;;5099231;28;19911;-78
2023/12/21 07:41:16;;;;;;;;;;;8.50;99.90;;;;;;5100088;28;19912;-77
2023/12/21 07:44:02;;;;;;;;;;;8.50;99.90;;;;;;5112133;28;19916;-77
2023/12/21 07:46:48;;;;;;;;;;;8.50;99.90;;;;;;5108309;28;19927;-77
2023/12/21 07:49:34;;;;;;;;;;;8.50;99.90;;;;;;5111759;28;20236;-78
2023/12/21 07:52:20;;;;;;;;;;;8.50;99.90;;;;;;5100764;28;19924;-78
2023/12/21 07:55:06;;;;;;;;;;;8.60;99.90;;;;;;5115996;28;20316;-78
2023/12/21 07:57:52;;;;;;;;;;;8.60;99.90;;;;;;5102147;28;19920;-79
2023/12/21 08:00:38;;;;;;;;;;;8.60;99.90;;;;;;5103673;28;20351;-77
2023/12/21 08:03:23;;;;;;;;;;;8.60;99.90;;;;;;5113903;28;19916;-78
2023/12/21 08:06:18;;;;;;;;;;;8.60;99.90;;;;;;5113457;28;19916;-79
2023/12/21 08:09:04;;;;;;;;;;;8.60;99.90;;;;;;5102104;28;20003;-77
2023/12/21 08:11:50;;;;;;;;;;;8.60;99.90;;;;;;5112869;28;20236;-77
2023/12/21 08:14:37;;;;;;;;;;;8.70;99.90;;;;;;5102353;28;19969;-78
2023/12/21 08:17:25;;;;;;;;;;;8.70;99.90;;;;;;5105078;28;19911;-78
2023/12/21 08:20:15;;;;;;;;;;;8.70;99.90;;;;;;5107720;28;20256;-77
2023/12/21 08:23:03;;;;;;;;;;;8.70;99.90;;;;;;5116657;28;19927;-78
2023/12/21 08:25:49;;;;;;;;;;;8.70;99.90;;;;;;5105710;28;19916;-79
2023/12/21 08:28:34;;;;;;;;;;;8.70;99.90;;;;;;5114266;28;19912;-78
2023/12/21 08:31:24;;;;;;;;;;;8.70;99.90;;;;;;5102879;28;19916;-78
2023/12/21 08:34:12;;;;;;;;;;;8.70;99.90;;;;;;5119772;28;19923;-79
2023/12/21 08:36:58;;;;;;;;;;;8.70;99.90;;;;;;5085254;28;19947;-78
2023/12/21 08:39:44;;;;;;;;;;;8.80;99.90;;;;;;5117978;28;19927;-78
2023/12/21 08:42:30;;;;;;;;;;;8.80;99.90;;;;;;5114565;28;19916;-77
2023/12/21 08:45:16;;;;;;;;;;;8.80;99.90;;;;;;5117713;28;19922;-78
2023/12/21 08:48:03;;;;;;;;;;;8.80;99.90;;;;;;5118354;28;19954;-76
2023/12/21 08:50:49;;;;;;;;;;;8.80;99.90;;;;;;5101116;28;19916;-77
2023/12/21 08:53:35;;;;;;;;;;;8.90;99.90;;;;;;5102837;28;19919;-78
2023/12/21 08:56:21;;;;;;;;;;;8.90;99.90;;;;;;5099863;28;19922;-77
2023/12/21 08:59:07;;;;;;;;;;;8.90;99.90;;;;;;5084013;28;19931;-79
2023/12/21 09:01:56;;;;;;;;;;;8.90;99.90;;;;;;5082494;28;19912;-76
2023/12/21 09:04:41;;;;;;;;;;;9.00;99.90;;;;;;5108481;28;19922;-78
2023/12/21 09:07:28;;;;;;;;;;;9.00;99.90;;;;;;5097744;28;20240;-77
2023/12/21 09:10:13;;;;;;;;;;;9.00;99.90;;;;;;5092563;28;19954;-79
2023/12/21 09:12:59;;;;;;;;;;;9.00;99.90;;;;;;5095927;28;19947;-77
2023/12/21 09:15:45;;;;;;;;;;;9.00;99.90;;;;;;5115729;28;19916;-77
2023/12/21 09:18:31;;;;;;;;;;;9.00;99.90;;;;;;5102095;28;19915;-77
2023/12/21 09:21:18;;;;;;;;;;;8.90;99.90;;;;;;5102573;28;20260;-77
2023/12/21 09:24:04;;;;;;;;;;;8.90;99.90;;;;;;5095605;28;19942;-77
2023/12/21 09:26:50;;;;;;;;;;;8.90;99.90;;;;;;5102685;28;19912;-77
2023/12/21 09:29:36;;;;;;;;;;;8.90;99.90;;;;;;5114463;28;20011;-77
2023/12/21 09:32:21;;;;;;;;;;;8.90;99.90;;;;;;5101707;28;19947;-77
2023/12/21 09:35:07;;;;;;;;;;;8.90;99.90;;;;;;5094935;28;19924;-76
2023/12/21 09:37:53;;;;;;;;;;;8.80;99.90;;;;;;5095446;28;19912;-77
2023/12/21 09:40:39;;;;;;;;;;;8.80;99.90;;;;;;5094373;28;19978;-76
2023/12/21 09:43:25;;;;;;;;;;;8.80;99.90;;;;;;5108170;28;19912;-76
2023/12/21 09:46:11;;;;;;;;;;;8.80;99.90;;;;;;5114729;28;20124;-77
2023/12/21 09:48:57;;;;;;;;;;;8.80;99.90;;;;;;5094275;28;20014;-75
2023/12/21 09:51:44;;;;;;;;;;;8.80;99.90;;;;;;5111301;28;19912;-75
2023/12/21 09:54:30;;;;;;;;;;;8.90;99.90;;;;;;5114646;28;19951;-75
2023/12/21 09:57:16;;;;;;;;;;;8.90;99.90;;;;;;5096544;28;20225;-76
2023/12/21 10:00:02;;;;;;;;;;;8.90;99.90;;;;;;5103533;28;20003;-76
2023/12/21 10:02:49;;;;;;;;;;;8.90;99.90;;;;;;5104111;28;19923;-76
2023/12/21 10:05:39;;;;;;;;;;;8.90;99.90;;;;;;5112035;28;19912;-75
2023/12/21 10:08:25;;;;;;;;;;;9.00;99.90;;;;;;5088843;28;20373;-76
2023/12/21 10:11:11;;;;;;;;;;;9.00;99.90;;;;;;5097271;28;19966;-77
2023/12/21 10:14:01;;;;;;;;;;;9.00;99.90;;;;;;5101095;28;19919;-77
2023/12/21 10:16:47;;;;;;;;;;;9.00;99.90;;;;;;5093888;28;20416;-76
2023/12/21 10:19:33;;;;;;;;;;;9.00;99.90;;;;;;5093809;28;19996;-75
2023/12/21 10:22:19;;;;;;;;;;;9.00;99.90;;;;;;5103717;28;20060;-76
2023/12/21 10:25:05;;;;;;;;;;;9.10;99.90;;;;;;5098314;28;19922;-75
2023/12/21 10:27:54;;;;;;;;;;;9.10;99.90;;;;;;5086849;28;19961;-75
2023/12/21 10:30:40;;;;;;;;;;;9.10;99.90;;;;;;5097473;28;19958;-75
2023/12/21 10:33:26;;;;;;;;;;;9.10;99.90;;;;;;5100477;28;20213;-75
2023/12/21 10:36:13;;;;;;;;;;;9.10;99.90;;;;;;5110676;28;20381;-76
2023/12/21 10:38:59;;;;;;;;;;;9.10;99.90;;;;;;5095537;28;19912;-76
2023/12/21 10:41:45;;;;;;;;;;;9.20;99.90;;;;;;5113770;28;19916;-76
2023/12/21 10:44:31;;;;;;;;;;;9.20;99.90;;;;;;5100708;28;19951;-76
2023/12/21 10:47:17;;;;;;;;;;;9.20;99.90;;;;;;5102680;28;20563;-76
2023/12/21 10:50:03;;;;;;;;;;;9.20;99.90;;;;;;5100677;28;20308;-75
2023/12/21 10:52:49;;;;;;;;;;;9.20;99.90;;;;;;5114652;28;20351;-77
2023/12/21 10:55:35;;;;;;;;;;;9.20;99.90;;;;;;5114144;28;19926;-76
2023/12/21 10:58:21;;;;;;;;;;;9.30;99.90;;;;;;5110463;28;20252;-77
2023/12/21 11:01:07;;;;;;;;;;;9.20;99.90;;;;;;5096961;28;19965;-75
2023/12/21 11:03:53;;;;;;;;;;;9.20;99.90;;;;;;5106302;28;19965;-75
2023/12/21 11:06:39;;;;;;;;;;;9.30;99.90;;;;;;5115319;28;19911;-76
2023/12/21 11:09:26;;;;;;;;;;;9.20;99.90;;;;;;5097375;28;19992;-76
2023/12/21 11:12:12;;;;;;;;;;;9.20;99.90;;;;;;5118431;28;19926;-75
2023/12/21 11:14:58;;;;;;;;;;;9.20;99.90;;;;;;5109779;28;19916;-75
2023/12/21 11:17:52;;;;;;;;;;;9.30;99.90;;;;;;5105996;28;19912;-76
2023/12/21 11:20:40;;;;;;;;;;;9.30;99.90;;;;;;5117105;28;19912;-76
2023/12/21 11:23:27;;;;;;;;;;;9.30;99.90;;;;;;5103743;28;19933;-76
2023/12/21 11:26:18;;;;;;;;;;;9.50;99.90;;;;;;5083413;28;19916;-76
2023/12/21 11:29:05;;;;;;;;;;;9.40;99.90;;;;;;5106141;28;19956;-76
2023/12/21 11:31:50;;;;;;;;;;;9.40;99.90;;;;;;5098451;28;19976;-76
2023/12/21 11:34:39;;;;;;;;;;;9.30;99.90;;;;;;5103091;28;19985;-75
2023/12/21 11:37:29;;;;;;;;;;;9.30;99.90;;;;;;5103226;28;20324;-77
2023/12/21 11:40:16;;;;;;;;;;;9.30;99.90;;;;;;5102457;28;19930;-77
2023/12/21 11:43:05;;;;;;;;;;;9.30;99.90;;;;;;5103311;28;19919;-77
2023/12/21 11:45:51;;;;;;;;;;;9.30;99.90;;;;;;5098766;28;20343;-77
2023/12/21 11:48:37;;;;;;;;;;;9.30;99.90;;;;;;5103930;28;20003;-77
2023/12/21 11:51:25;;;;;;;;;;;9.30;99.90;;;;;;5093452;28;19912;-77
2023/12/21 11:54:11;;;;;;;;;;;9.30;99.90;;;;;;5117746;28;19912;-77
2023/12/21 11:57:10;;;;;;;;;;;9.30;99.90;;;;;;5115309;28;19922;-77
2023/12/21 12:00:07;;;;;;;;;;;9.30;99.90;;;;;;5095894;28;19927;-77
2023/12/21 12:02:53;;;;;;;;;;;9.30;99.90;;;;;;5099108;27;19955;-77
2023/12/21 12:05:39;;;;;;;;;;;9.40;99.90;;;;;;5103773;28;19957;-77
2023/12/21 12:08:25;;;;;;;;;;;9.40;99.90;;;;;;5101854;28;19911;-76
2023/12/21 12:11:11;;;;;;;;;;;9.40;99.90;;;;;;5116094;28;19912;-77
2023/12/21 12:13:58;;;;;;;;;;;9.40;99.90;;;;;;5100348;28;20290;-78
2023/12/21 12:16:44;;;;;;;;;;;9.40;99.90;;;;;;5096874;28;19920;-77
2023/12/21 12:19:30;;;;;;;;;;;9.40;99.90;;;;;;5083889;28;20287;-78
2023/12/21 12:22:15;;;;;;;;;;;9.40;99.90;;;;;;5084759;28;19948;-78
2023/12/21 12:25:05;;;;;;;;;;;9.40;99.90;;;;;;5083382;28;20007;-77
2023/12/21 12:27:51;;;;;;;;;;;9.40;99.90;;;;;;5106289;28;19938;-78
2023/12/21 12:30:37;;;;;;;;;;;9.40;99.90;;;;;;5115507;28;19926;-77
2023/12/21 12:33:22;;;;;;;;;;;9.40;99.90;;;;;;5088644;28;20015;-78
2023/12/21 12:36:08;;;;;;;;;;;9.40;99.90;;;;;;5105291;28;20042;-78
2023/12/21 12:38:54;;;;;;;;;;;9.40;99.90;;;;;;5083704;28;20002;-77
2023/12/21 12:41:40;;;;;;;;;;;9.40;99.90;;;;;;5096896;28;19951;-77
2023/12/21 12:44:26;;;;;;;;;;;9.50;99.90;;;;;;5082906;28;19923;-77
2023/12/21 12:47:12;;;;;;;;;;;9.50;99.90;;;;;;5106763;28;19925;-77
2023/12/21 12:50:07;;;;;;;;;;;9.50;99.90;;;;;;5104139;28;19923;-78
2023/12/21 12:52:53;;;;;;;;;;;9.50;99.90;;;;;;5095328;28;19980;-77
2023/12/21 12:55:39;;;;;;;;;;;9.60;99.90;;;;;;5099000;28;19942;-76
2023/12/21 12:58:29;;;;;;;;;;;9.60;99.90;;;;;;5115900;28;19922;-77
2023/12/21 13:01:16;;;;;;;;;;;9.60;99.90;;;;;;5117082;28;19970;-76
2023/12/21 13:04:05;;;;;;;;;;;9.60;99.90;;;;;;5096230;28;20239;-77
2023/12/21 13:06:53;;;;;;;;;;;9.60;99.90;;;;;;5085362;28;19912;-77
2023/12/21 13:09:39;;;;;;;;;;;9.70;99.90;;;;;;5082917;28;19916;-76
2023/12/21 13:12:25;;;;;;;;;;;9.70;99.90;;;;;;5082315;28;19920;-77
2023/12/21 13:15:14;;;;;;;;;;;9.70;99.90;;;;;;5102428;28;20328;-76
2023/12/21 13:18:01;;;;;;;;;;;9.80;99.90;;;;;;5115478;28;19954;-76
2023/12/21 13:20:49;;;;;;;;;;;9.70;99.90;;;;;;5113457;28;20313;-77
2023/12/21 13:23:35;;;;;;;;;;;9.70;99.90;;;;;;5115561;28;19997;-77
2023/12/21 13:26:22;;;;;;;;;;;9.70;99.90;;;;;;5113316;28;20351;-76
2023/12/21 13:29:08;;;;;;;;;;;9.60;99.90;;;;;;5104658;28;20348;-76
2023/12/21 13:31:54;;;;;;;;;;;9.40;99.90;;;;;;5087039;28;19920;-77
2023/12/21 13:34:40;;;;;;;;;;;9.30;99.90;;;;;;5114588;28;20310;-77
2023/12/21 13:37:25;;;;;;;;;;;9.00;99.90;;;;;;5090867;28;19949;-78
2023/12/21 13:40:11;;;;;;;;;;;8.70;99.90;;;;;;5107063;28;19976;-77
2023/12/21 13:42:57;;;;;;;;;;;8.50;99.90;;;;;;5115406;28;19923;-77
2023/12/21 13:45:44;;;;;;;;;;;8.40;99.90;;;;;;5112049;28;19912;-77
2023/12/21 13:48:29;;;;;;;;;;;8.30;99.90;;;;;;5094691;28;19950;-77
2023/12/21 13:51:15;;;;;;;;;;;8.30;99.90;;;;;;5102029;27;19994;-76
2023/12/21 13:54:02;;;;;;;;;;;8.40;99.90;;;;;;5103896;27;19928;-76
2023/12/21 13:56:48;;;;;;;;;;;8.40;99.90;;;;;;5101233;28;20006;-76
2023/12/21 13:59:35;;;;;;;;;;;8.40;99.90;;;;;;5101160;28;19916;-76
2023/12/21 14:02:21;;;;;;;;;;;8.40;99.90;;;;;;5081932;28;20313;-76
2023/12/21 14:05:08;;;;;;;;;;;8.50;99.90;;;;;;5113221;28;19911;-76
2023/12/21 14:07:54;;;;;;;;;;;8.50;99.90;;;;;;5082152;28;19916;-76
2023/12/21 14:10:40;;;;;;;;;;;8.50;99.90;;;;;;5080945;28;19912;-77
2023/12/21 14:13:26;;;;;;;;;;;8.30;99.90;;;;;;5106440;28;19926;-77
2023/12/21 14:16:12;;;;;;;;;;;8.10;99.90;;;;;;5099004;28;19926;-77
2023/12/21 14:18:58;;;;;;;;;;;7.90;99.90;;;;;;5114879;28;20288;-77
2023/12/21 14:21:44;;;;;;;;;;;7.80;99.90;;;;;;5105255;28;19924;-76
2023/12/21 14:24:30;;;;;;;;;;;7.60;99.90;;;;;;5096179;28;19939;-76
2023/12/21 14:27:19;;;;;;;;;;;7.50;99.90;;;;;;5100045;28;20387;-75
2023/12/21 14:30:08;;;;;;;;;;;7.40;99.90;;;;;;5089764;28;20305;-76
2023/12/21 14:32:57;;;;;;;;;;;7.30;99.90;;;;;;5090517;28;19912;-78
2023/12/21 14:35:44;;;;;;;;;;;7.30;99.90;;;;;;5108728;28;19925;-77
2023/12/21 14:38:31;;;;;;;;;;;7.20;99.90;;;;;;5098820;28;19964;-77
2023/12/21 14:41:17;;;;;;;;;;;7.10;99.90;;;;;;5083210;28;22104;-78
2023/12/21 14:44:03;;;;;;;;;;;7.00;99.90;;;;;;5105277;28;19951;-78
2023/12/21 14:46:49;;;;;;;;;;;7.00;99.90;;;;;;5099188;28;19931;-79
2023/12/21 14:49:37;;;;;;;;;;;6.90;99.90;;;;;;5106997;28;19938;-78
2023/12/21 14:52:24;;;;;;;;;;;6.80;99.90;;;;;;5111099;28;19922;-77
2023/12/21 14:55:12;;;;;;;;;;;6.60;99.90;;;;;;5101866;28;20010;-78
2023/12/21 14:57:58;;;;;;;;;;;6.60;99.90;;;;;;5101465;28;19911;-78
2023/12/21 15:00:44;;;;;;;;;;;6.60;99.90;;;;;;5116078;28;19919;-78
2023/12/21 15:03:30;;;;;;;;;;;6.60;99.90;;;;;;5114664;28;19950;-79
2023/12/21 15:06:17;;;;;;;;;;;6.50;99.90;;;;;;5096068;28;20313;-78
2023/12/21 15:09:03;;;;;;;;;;;6.50;99.90;;;;;;5096289;28;19916;-78
2023/12/21 15:11:49;;;;;;;;;;;6.50;99.90;;;;;;5114410;28;19958;-77
2023/12/21 15:14:35;;;;;;;;;;;6.60;99.90;;;;;;5114726;28;19955;-78
2023/12/21 15:17:21;;;;;;;;;;;6.60;99.90;;;;;;5101760;28;20275;-78
2023/12/21 15:20:07;;;;;;;;;;;6.60;99.90;;;;;;5095576;28;19943;-78
2023/12/21 15:22:54;;;;;;;;;;;6.60;99.90;;;;;;5080687;28;19926;-77
2023/12/21 15:25:41;;;;;;;;;;;6.60;99.90;;;;;;5081419;28;19912;-78
2023/12/21 15:28:27;;;;;;;;;;;6.60;99.90;;;;;;5095903;28;20347;-77
2023/12/21 15:31:12;;;;;;;;;;;6.60;99.90;;;;;;5112315;28;19916;-78
2023/12/21 15:33:58;;;;;;;;;;;6.60;99.90;;;;;;5106938;28;19920;-77
2023/12/21 15:36:44;;;;;;;;;;;6.60;99.90;;;;;;5099810;28;20011;-78
2023/12/21 15:39:30;;;;;;;;;;;6.50;99.90;;;;;;5083973;28;19956;-76
2023/12/21 15:42:17;;;;;;;;;;;6.50;99.90;;;;;;5102392;28;19939;-77
2023/12/21 15:45:06;;;;;;;;;;;6.50;99.90;;;;;;5094663;28;19994;-79
2023/12/21 15:47:53;;;;;;;;;;;6.50;99.90;;;;;;5114659;28;20328;-78
2023/12/21 15:50:39;;;;;;;;;;;6.60;99.90;;;;;;5113549;28;19976;-78
2023/12/21 15:53:26;;;;;;;;;;;6.60;99.90;;;;;;5106442;28;19925;-79
2023/12/21 15:56:12;;;;;;;;;;;6.60;99.90;;;;;;5118225;28;20370;-79
2023/12/21 15:58:58;;;;;;;;;;;6.60;99.90;;;;;;5104648;28;19922;-78
2023/12/21 16:01:45;;;;;;;;;;;6.70;99.90;;;;;;5115145;28;19923;-78
2023/12/21 16:04:31;;;;;;;;;;;6.70;99.90;;;;;;5092761;28;19923;-78
2023/12/21 16:07:16;;;;;;;;;;;6.70;99.90;;;;;;5112619;28;19912;-76
2023/12/21 16:10:02;;;;;;;;;;;6.70;99.90;;;;;;5112401;28;19980;-77
2023/12/21 16:12:48;;;;;;;;;;;6.70;99.90;;;;;;5104131;28;19912;-77
2023/12/21 16:15:34;;;;;;;;;;;6.80;99.90;;;;;;5111599;28;20011;-77
2023/12/21 16:18:20;;;;;;;;;;;6.80;99.90;;;;;;5105757;28;19922;-78
2023/12/21 16:21:06;;;;;;;;;;;6.80;99.90;;;;;;5105860;28;19923;-77
2023/12/21 16:23:52;;;;;;;;;;;6.80;99.90;;;;;;5093635;28;19923;-78